TimeEDT,TemperatureF,Dew PointF,Humidity,Sea Level PressureIn,VisibilityMPH,Wind Direction,Wind SpeedMPH,Gust SpeedMPH,PrecipitationIn,Events,Conditions,WindDirDegrees,DateUTC
12:53 AM,61.0,57.0,87,30.06,10.0,Calm,Calm,-,N/A,,Clear,0,2013-05-18 04:53:00
1:53 AM,61.0,57.0,87,30.05,10.0,Calm,Calm,-,N/A,,Clear,0,2013-05-18 05:53:00
2:53 AM,60.1,55.9,86,30.04,9.0,Calm,Calm,-,N/A,,Clear,0,2013-05-18 06:53:00
3:53 AM,57.9,55.0,90,30.05,8.0,North,3.5,-,N/A,,Clear,10,2013-05-18 07:53:00
4:53 AM,57.9,55.0,90,30.06,8.0,Calm,Calm,-,N/A,,Clear,0,2013-05-18 08:53:00
5:53 AM,57.0,55.0,93,30.06,8.0,Calm,Calm,-,N/A,,Clear,0,2013-05-18 09:53:00
6:53 AM,59.0,55.9,90,30.08,7.0,Calm,Calm,-,N/A,,Partly Cloudy,0,2013-05-18 10:53:00
7:53 AM,61.0,57.0,87,30.09,10.0,Calm,Calm,-,N/A,,Mostly Cloudy,0,2013-05-18 11:53:00
8:53 AM,64.0,57.0,78,30.09,10.0,Calm,Calm,-,N/A,,Scattered Clouds,0,2013-05-18 12:53:00
9:53 AM,69.1,57.9,68,30.09,10.0,ESE,4.6,-,N/A,,Clear,110,2013-05-18 13:53:00
10:53 AM,72.0,59.0,64,30.09,10.0,Calm,Calm,-,N/A,,Overcast,0,2013-05-18 14:53:00
11:53 AM,73.9,61.0,64,30.07,10.0,Calm,Calm,-,N/A,,Mostly Cloudy,0,2013-05-18 15:53:00
12:53 PM,78.1,57.9,50,30.06,10.0,SSW,5.8,-,N/A,,Mostly Cloudy,210,2013-05-18 16:53:00
1:53 PM,79.0,60.1,52,30.05,10.0,SSW,5.8,-,N/A,,Mostly Cloudy,210,2013-05-18 17:53:00
3:53 PM,75.0,57.9,55,30.03,10.0,South,6.9,-,N/A,,Overcast,190,2013-05-18 19:53:00
4:53 PM,78.1,57.9,50,30.01,10.0,Calm,Calm,-,0.00,,Partly Cloudy,0,2013-05-18 20:53:00
5:53 PM,75.9,61.0,60,30.01,10.0,East,4.6,-,N/A,,Overcast,90,2013-05-18 21:53:00
6:53 PM,72.0,60.1,66,30.03,10.0,ENE,8.1,-,N/A,,Scattered Clouds,60,2013-05-18 22:53:00
7:53 PM,70.0,60.1,71,30.04,10.0,ENE,4.6,-,N/A,,Mostly Cloudy,70,2013-05-18 23:53:00
8:53 PM,70.0,59.0,68,30.05,10.0,South,6.9,-,N/A,,Overcast,190,2013-05-19 00:53:00
10:53 PM,64.9,61.0,87,30.05,10.0,ENE,3.5,-,N/A,,Partly Cloudy,70,2013-05-19 02:53:00
11:53 PM,64.9,60.1,84,30.05,10.0,Calm,Calm,-,N/A,,Scattered Clouds,0,2013-05-19 03:53:00